sensor_id;sensor_type;location;lat;lon;timestamp;pressure;altitude;pressure_sealevel;temperature;humidity
60646;BME280;46462;32.608;-117.032;2023-04-16T00:01:58;99666.95;;;23.80;40.10
60646;BME280;46462;32.608;-117.032;2023-04-16T00:04:28;99668.04;;;23.82;39.91
60646;BME280;46462;32.608;-117.032;2023-04-16T00:06:59;99670.53;;;23.81;39.93
60646;BME280;46462;32.608;-117.032;2023-04-16T00:09:30;99670.19;;;23.78;40.04
60646;BME280;46462;32.608;-117.032;2023-04-16T00:12:01;99669.71;;;23.79;40.02
60646;BME280;46462;32.608;-117.032;2023-04-16T00:14:32;99666.94;;;23.78;40.20
60646;BME280;46462;32.608;-117.032;2023-04-16T00:17:02;99668.76;;;23.80;40.09
60646;BME280;46462;32.608;-117.032;2023-04-16T00:19:33;99668.09;;;23.82;40.26
60646;BME280;46462;32.608;-117.032;2023-04-16T00:22:04;99666.73;;;23.85;40.12
60646;BME280;46462;32.608;-117.032;2023-04-16T00:24:34;99667.90;;;23.86;40.30
60646;BME280;46462;32.608;-117.032;2023-04-16T00:27:06;99672.21;;;23.88;40.28
60646;BME280;46462;32.608;-117.032;2023-04-16T00:29:36;99669.71;;;23.88;40.25
60646;BME280;46462;32.608;-117.032;2023-04-16T00:32:07;99675.21;;;23.90;40.31
60646;BME280;46462;32.608;-117.032;2023-04-16T00:34:37;99676.06;;;23.90;40.28
60646;BME280;46462;32.608;-117.032;2023-04-16T00:37:08;99676.37;;;23.92;40.38
60646;BME280;46462;32.608;-117.032;2023-04-16T00:39:39;99677.54;;;23.92;40.46
60646;BME280;46462;32.608;-117.032;2023-04-16T00:42:10;99679.98;;;23.93;40.48
60646;BME280;46462;32.608;-117.032;2023-04-16T00:44:41;99677.55;;;23.93;40.52
60646;BME280;46462;32.608;-117.032;2023-04-16T00:47:11;99680.03;;;23.95;40.51
60646;BME280;46462;32.608;-117.032;2023-04-16T00:49:42;99679.83;;;23.95;40.53
60646;BME280;46462;32.608;-117.032;2023-04-16T00:52:13;99680.38;;;23.98;40.54
60646;BME280;46462;32.608;-117.032;2023-04-16T00:54:43;99684.75;;;23.99;40.54
60646;BME280;46462;32.608;-117.032;2023-04-16T00:57:14;99683.63;;;24.01;40.56
60646;BME280;46462;32.608;-117.032;2023-04-16T00:59:45;99683.96;;;24.01;40.58
60646;BME280;46462;32.608;-117.032;2023-04-16T01:02:16;99687.35;;;24.02;40.59
60646;BME280;46462;32.608;-117.032;2023-04-16T01:04:46;99690.97;;;23.98;40.70
60646;BME280;46462;32.608;-117.032;2023-04-16T01:07:17;99688.97;;;23.99;40.79
60646;BME280;46462;32.608;-117.032;2023-04-16T01:09:48;99691.41;;;23.97;40.85
60646;BME280;46462;32.608;-117.032;2023-04-16T01:12:18;99694.97;;;23.98;40.84
60646;BME280;46462;32.608;-117.032;2023-04-16T01:14:49;99699.00;;;23.99;40.87
60646;BME280;46462;32.608;-117.032;2023-04-16T01:17:20;99698.64;;;24.00;40.88
60646;BME280;46462;32.608;-117.032;2023-04-16T01:19:51;99701.02;;;24.00;40.94
60646;BME280;46462;32.608;-117.032;2023-04-16T01:22:21;99698.55;;;24.02;40.93
60646;BME280;46462;32.608;-117.032;2023-04-16T01:24:52;99698.01;;;24.00;41.02
60646;BME280;46462;32.608;-117.032;2023-04-16T01:27:23;99700.07;;;24.01;41.03
60646;BME280;46462;32.608;-117.032;2023-04-16T01:29:54;99701.16;;;24.03;41.03
60646;BME280;46462;32.608;-117.032;2023-04-16T01:32:24;99705.27;;;24.07;40.96
60646;BME280;46462;32.608;-117.032;2023-04-16T01:34:55;99703.18;;;24.08;40.92
60646;BME280;46462;32.608;-117.032;2023-04-16T01:37:26;99700.77;;;24.09;40.93
60646;BME280;46462;32.608;-117.032;2023-04-16T01:39:57;99701.09;;;24.08;40.97
60646;BME280;46462;32.608;-117.032;2023-04-16T01:42:32;99702.43;;;24.09;40.97
60646;BME280;46462;32.608;-117.032;2023-04-16T01:44:58;99702.83;;;24.07;40.99
60646;BME280;46462;32.608;-117.032;2023-04-16T01:47:29;99697.61;;;24.08;41.00
60646;BME280;46462;32.608;-117.032;2023-04-16T01:50:00;99700.92;;;24.07;41.03
60646;BME280;46462;32.608;-117.032;2023-04-16T01:52:30;99699.77;;;24.07;40.97
60646;BME280;46462;32.608;-117.032;2023-04-16T01:55:01;99704.03;;;24.06;40.99
60646;BME280;46462;32.608;-117.032;2023-04-16T01:57:32;99707.14;;;24.06;41.08
60646;BME280;46462;32.608;-117.032;2023-04-16T02:00:08;99708.71;;;24.06;40.99
60646;BME280;46462;32.608;-117.032;2023-04-16T02:02:38;99705.14;;;24.07;40.80
60646;BME280;46462;32.608;-117.032;2023-04-16T02:05:08;99702.86;;;24.05;40.81
60646;BME280;46462;32.608;-117.032;2023-04-16T02:07:38;99706.14;;;24.03;40.90
60646;BME280;46462;32.608;-117.032;2023-04-16T02:10:09;99707.18;;;24.01;40.90
60646;BME280;46462;32.608;-117.032;2023-04-16T02:12:40;99705.21;;;23.99;40.95
60646;BME280;46462;32.608;-117.032;2023-04-16T02:15:11;99706.08;;;23.97;41.00
60646;BME280;46462;32.608;-117.032;2023-04-16T02:17:41;99713.03;;;23.97;41.02
60646;BME280;46462;32.608;-117.032;2023-04-16T02:20:12;99715.81;;;23.96;41.02
60646;BME280;46462;32.608;-117.032;2023-04-16T02:22:43;99717.59;;;23.98;40.98
60646;BME280;46462;32.608;-117.032;2023-04-16T02:25:14;99721.09;;;24.00;41.03
60646;BME280;46462;32.608;-117.032;2023-04-16T02:27:44;99724.05;;;24.02;41.02
60646;BME280;46462;32.608;-117.032;2023-04-16T02:30:15;99729.02;;;24.03;41.04
60646;BME280;46462;32.608;-117.032;2023-04-16T02:32:46;99734.26;;;24.05;40.98
60646;BME280;46462;32.608;-117.032;2023-04-16T02:35:16;99733.91;;;24.04;40.99
60646;BME280;46462;32.608;-117.032;2023-04-16T02:37:47;99738.29;;;24.04;41.00
60646;BME280;46462;32.608;-117.032;2023-04-16T02:40:18;99740.90;;;24.03;41.03
60646;BME280;46462;32.608;-117.032;2023-04-16T02:42:49;99745.29;;;24.03;41.04
60646;BME280;46462;32.608;-117.032;2023-04-16T02:45:19;99748.14;;;24.02;41.28
60646;BME280;46462;32.608;-117.032;2023-04-16T02:47:50;99753.01;;;24.04;41.24
60646;BME280;46462;32.608;-117.032;2023-04-16T02:50:21;99756.43;;;24.02;41.39
60646;BME280;46462;32.608;-117.032;2023-04-16T02:52:51;99760.54;;;24.01;41.37
60646;BME280;46462;32.608;-117.032;2023-04-16T02:55:22;99764.09;;;23.98;41.45
60646;BME280;46462;32.608;-117.032;2023-04-16T02:57:53;99771.53;;;23.98;41.52
60646;BME280;46462;32.608;-117.032;2023-04-16T03:00:24;99775.39;;;23.97;41.60
60646;BME280;46462;32.608;-117.032;2023-04-16T03:02:54;99775.87;;;23.99;41.73
60646;BME280;46462;32.608;-117.032;2023-04-16T03:05:25;99776.87;;;23.99;41.83
60646;BME280;46462;32.608;-117.032;2023-04-16T03:07:56;99781.49;;;23.98;41.87
60646;BME280;46462;32.608;-117.032;2023-04-16T03:10:27;99785.57;;;23.97;41.91
60646;BME280;46462;32.608;-117.032;2023-04-16T03:12:58;99789.59;;;23.95;41.89
60646;BME280;46462;32.608;-117.032;2023-04-16T03:15:29;99791.32;;;23.91;42.02
60646;BME280;46462;32.608;-117.032;2023-04-16T03:17:59;99796.03;;;23.92;42.03
60646;BME280;46462;32.608;-117.032;2023-04-16T03:20:30;99797.60;;;23.92;42.09
60646;BME280;46462;32.608;-117.032;2023-04-16T03:23:00;99802.17;;;23.90;42.00
60646;BME280;46462;32.608;-117.032;2023-04-16T03:25:31;99806.37;;;23.91;42.12
60646;BME280;46462;32.608;-117.032;2023-04-16T03:28:02;99807.94;;;23.92;42.09
60646;BME280;46462;32.608;-117.032;2023-04-16T03:30:33;99810.40;;;23.90;42.09
60646;BME280;46462;32.608;-117.032;2023-04-16T03:33:03;99812.25;;;23.91;42.12
60646;BME280;46462;32.608;-117.032;2023-04-16T03:35:34;99813.97;;;23.88;42.13
60646;BME280;46462;32.608;-117.032;2023-04-16T03:38:05;99818.13;;;23.88;42.20
60646;BME280;46462;32.608;-117.032;2023-04-16T03:40:36;99822.41;;;23.87;42.20
60646;BME280;46462;32.608;-117.032;2023-04-16T03:43:06;99827.11;;;23.88;42.17
60646;BME280;46462;32.608;-117.032;2023-04-16T03:45:43;99831.41;;;23.87;42.19
60646;BME280;46462;32.608;-117.032;2023-04-16T03:48:08;99835.77;;;23.88;42.21
60646;BME280;46462;32.608;-117.032;2023-04-16T03:50:39;99835.78;;;23.85;42.23
60646;BME280;46462;32.608;-117.032;2023-04-16T03:53:09;99834.02;;;23.85;42.26
60646;BME280;46462;32.608;-117.032;2023-04-16T03:55:41;99836.49;;;23.85;42.23
60646;BME280;46462;32.608;-117.032;2023-04-16T03:58:11;99840.22;;;23.86;42.19
60646;BME280;46462;32.608;-117.032;2023-04-16T04:00:42;99842.23;;;23.84;42.20
60646;BME280;46462;32.608;-117.032;2023-04-16T04:03:13;99842.19;;;23.85;42.19
60646;BME280;46462;32.608;-117.032;2023-04-16T04:05:43;99841.10;;;23.80;42.22
60646;BME280;46462;32.608;-117.032;2023-04-16T04:08:14;99843.29;;;23.80;42.25
60646;BME280;46462;32.608;-117.032;2023-04-16T04:10:45;99852.28;;;23.77;42.34
60646;BME280;46462;32.608;-117.032;2023-04-16T04:13:15;99856.14;;;23.77;42.32
60646;BME280;46462;32.608;-117.032;2023-04-16T04:15:46;99860.22;;;23.77;42.34
60646;BME280;46462;32.608;-117.032;2023-04-16T04:18:17;99864.38;;;23.78;42.28
60646;BME280;46462;32.608;-117.032;2023-04-16T04:20:48;99868.77;;;23.74;42.33
60646;BME280;46462;32.608;-117.032;2023-04-16T04:23:18;99868.95;;;23.76;42.30
60646;BME280;46462;32.608;-117.032;2023-04-16T04:25:49;99871.07;;;23.77;42.29
60646;BME280;46462;32.608;-117.032;2023-04-16T04:28:20;99873.61;;;23.79;42.24
60646;BME280;46462;32.608;-117.032;2023-04-16T04:30:51;99873.97;;;23.75;42.19
60646;BME280;46462;32.608;-117.032;2023-04-16T04:33:22;99874.42;;;23.78;42.19
60646;BME280;46462;32.608;-117.032;2023-04-16T04:35:53;99871.94;;;23.77;42.13
60646;BME280;46462;32.608;-117.032;2023-04-16T04:38:23;99871.97;;;23.77;42.21
60646;BME280;46462;32.608;-117.032;2023-04-16T04:40:54;99874.43;;;23.74;42.25
60646;BME280;46462;32.608;-117.032;2023-04-16T04:43:25;99876.58;;;23.75;42.23
60646;BME280;46462;32.608;-117.032;2023-04-16T04:45:55;99877.22;;;23.75;42.15
60646;BME280;46462;32.608;-117.032;2023-04-16T04:48:26;99879.40;;;23.73;42.11
60646;BME280;46462;32.608;-117.032;2023-04-16T04:50:57;99881.94;;;23.71;42.23
60646;BME280;46462;32.608;-117.032;2023-04-16T04:53:28;99884.29;;;23.74;42.14
60646;BME280;46462;32.608;-117.032;2023-04-16T04:55:58;99884.30;;;23.74;42.09
60646;BME280;46462;32.608;-117.032;2023-04-16T04:58:29;99884.29;;;23.72;42.11
60646;BME280;46462;32.608;-117.032;2023-04-16T05:01:00;99881.49;;;23.71;42.10
60646;BME280;46462;32.608;-117.032;2023-04-16T05:03:31;99879.65;;;23.70;42.15
60646;BME280;46462;32.608;-117.032;2023-04-16T05:06:02;99875.75;;;23.67;42.10
60646;BME280;46462;32.608;-117.032;2023-04-16T05:08:33;99877.28;;;23.67;42.19
60646;BME280;46462;32.608;-117.032;2023-04-16T05:11:03;99878.63;;;23.68;42.18
60646;BME280;46462;32.608;-117.032;2023-04-16T05:13:34;99879.63;;;23.67;42.13
60646;BME280;46462;32.608;-117.032;2023-04-16T05:16:06;99881.05;;;23.68;42.11
60646;BME280;46462;32.608;-117.032;2023-04-16T05:18:36;99883.59;;;23.65;42.09
60646;BME280;46462;32.608;-117.032;2023-04-16T05:21:06;99881.70;;;23.62;42.20
60646;BME280;46462;32.608;-117.032;2023-04-16T05:23:37;99881.12;;;23.61;42.16
60646;BME280;46462;32.608;-117.032;2023-04-16T05:26:07;99885.23;;;23.59;42.14
60646;BME280;46462;32.608;-117.032;2023-04-16T05:28:38;99887.09;;;23.62;42.09
60646;BME280;46462;32.608;-117.032;2023-04-16T05:31:10;99883.52;;;23.62;42.10
60646;BME280;46462;32.608;-117.032;2023-04-16T05:33:40;99883.19;;;23.59;42.12
60646;BME280;46462;32.608;-117.032;2023-04-16T05:36:10;99878.82;;;23.59;42.14
60646;BME280;46462;32.608;-117.032;2023-04-16T05:38:41;99876.99;;;23.54;42.16
60646;BME280;46462;32.608;-117.032;2023-04-16T05:41:12;99879.00;;;23.58;42.09
60646;BME280;46462;32.608;-117.032;2023-04-16T05:43:43;99873.98;;;23.53;42.12
60646;BME280;46462;32.608;-117.032;2023-04-16T05:46:14;99868.94;;;23.51;42.14
60646;BME280;46462;32.608;-117.032;2023-04-16T05:48:44;99868.27;;;23.49;42.20
60646;BME280;46462;32.608;-117.032;2023-04-16T05:51:15;99862.45;;;23.49;42.16
60646;BME280;46462;32.608;-117.032;2023-04-16T05:53:46;99856.43;;;23.47;42.11
60646;BME280;46462;32.608;-117.032;2023-04-16T05:56:17;99852.25;;;23.45;42.12
60646;BME280;46462;32.608;-117.032;2023-04-16T05:58:47;99846.96;;;23.47;42.06
60646;BME280;46462;32.608;-117.032;2023-04-16T06:01:18;99843.65;;;23.51;42.05
60646;BME280;46462;32.608;-117.032;2023-04-16T06:03:49;99841.46;;;23.48;41.98
60646;BME280;46462;32.608;-117.032;2023-04-16T06:06:20;99843.69;;;23.45;42.06
60646;BME280;46462;32.608;-117.032;2023-04-16T06:08:50;99843.14;;;23.41;42.08
60646;BME280;46462;32.608;-117.032;2023-04-16T06:11:21;99841.75;;;23.39;42.12
60646;BME280;46462;32.608;-117.032;2023-04-16T06:13:52;99838.56;;;23.38;42.14
60646;BME280;46462;32.608;-117.032;2023-04-16T06:16:23;99839.76;;;23.40;42.11
60646;BME280;46462;32.608;-117.032;2023-04-16T06:18:54;99836.56;;;23.38;42.08
60646;BME280;46462;32.608;-117.032;2023-04-16T06:21:24;99836.85;;;23.38;42.06
60646;BME280;46462;32.608;-117.032;2023-04-16T06:23:56;99833.70;;;23.38;42.02
60646;BME280;46462;32.608;-117.032;2023-04-16T06:26:26;99831.20;;;23.40;41.93
60646;BME280;46462;32.608;-117.032;2023-04-16T06:29:02;99824.62;;;23.40;41.85
60646;BME280;46462;32.608;-117.032;2023-04-16T06:31:28;99825.41;;;23.42;41.87
60646;BME280;46462;32.608;-117.032;2023-04-16T06:33:58;99826.37;;;23.42;41.87
60646;BME280;46462;32.608;-117.032;2023-04-16T06:36:29;99825.92;;;23.46;41.76
60646;BME280;46462;32.608;-117.032;2023-04-16T06:39:00;99825.77;;;23.41;41.76
60646;BME280;46462;32.608;-117.032;2023-04-16T06:41:30;99820.51;;;23.35;41.87
60646;BME280;46462;32.608;-117.032;2023-04-16T06:44:01;99821.03;;;23.33;41.84
60646;BME280;46462;32.608;-117.032;2023-04-16T06:46:32;99821.40;;;23.36;41.86
60646;BME280;46462;32.608;-117.032;2023-04-16T06:49:03;99821.61;;;23.32;41.81
60646;BME280;46462;32.608;-117.032;2023-04-16T06:51:34;99820.77;;;23.32;41.87
60646;BME280;46462;32.608;-117.032;2023-04-16T06:54:04;99816.69;;;23.35;41.77
60646;BME280;46462;32.608;-117.032;2023-04-16T06:56:36;99813.13;;;23.36;41.73
60646;BME280;46462;32.608;-117.032;2023-04-16T06:59:12;99810.43;;;23.36;41.66
60646;BME280;46462;32.608;-117.032;2023-04-16T07:01:37;99808.09;;;23.32;41.66
60646;BME280;46462;32.608;-117.032;2023-04-16T07:04:08;99807.07;;;23.28;41.73
60646;BME280;46462;32.608;-117.032;2023-04-16T07:06:38;99803.97;;;23.28;41.71
60646;BME280;46462;32.608;-117.032;2023-04-16T07:09:10;99800.29;;;23.35;41.57
60646;BME280;46462;32.608;-117.032;2023-04-16T07:11:40;99797.04;;;23.33;41.54
60646;BME280;46462;32.608;-117.032;2023-04-16T07:14:11;99796.88;;;23.26;41.64
60646;BME280;46462;32.608;-117.032;2023-04-16T07:16:41;99799.57;;;23.23;41.68
60646;BME280;46462;32.608;-117.032;2023-04-16T07:19:12;99800.01;;;23.22;41.67
60646;BME280;46462;32.608;-117.032;2023-04-16T07:21:43;99797.26;;;23.21;41.67
60646;BME280;46462;32.608;-117.032;2023-04-16T07:24:14;99798.68;;;23.19;41.70
60646;BME280;46462;32.608;-117.032;2023-04-16T07:26:44;99796.65;;;23.15;41.77
60646;BME280;46462;32.608;-117.032;2023-04-16T07:29:15;99794.83;;;23.11;41.82
60646;BME280;46462;32.608;-117.032;2023-04-16T07:31:46;99790.44;;;23.12;41.81
60646;BME280;46462;32.608;-117.032;2023-04-16T07:34:17;99790.93;;;23.12;41.76
60646;BME280;46462;32.608;-117.032;2023-04-16T07:36:48;99790.79;;;23.15;41.70
60646;BME280;46462;32.608;-117.032;2023-04-16T07:39:18;99790.04;;;23.16;41.61
60646;BME280;46462;32.608;-117.032;2023-04-16T07:41:49;99788.45;;;23.17;41.57
60646;BME280;46462;32.608;-117.032;2023-04-16T07:44:20;99787.90;;;23.17;41.55
60646;BME280;46462;32.608;-117.032;2023-04-16T07:46:51;99785.16;;;23.17;41.57
60646;BME280;46462;32.608;-117.032;2023-04-16T07:49:22;99782.24;;;23.16;41.52
60646;BME280;46462;32.608;-117.032;2023-04-16T07:51:52;99781.83;;;23.16;41.47
60646;BME280;46462;32.608;-117.032;2023-04-16T07:54:23;99777.96;;;23.13;41.55
60646;BME280;46462;32.608;-117.032;2023-04-16T07:56:54;99781.28;;;23.15;41.49
60646;BME280;46462;32.608;-117.032;2023-04-16T07:59:25;99782.01;;;23.11;41.55
60646;BME280;46462;32.608;-117.032;2023-04-16T08:01:55;99781.73;;;23.10;41.52
60646;BME280;46462;32.608;-117.032;2023-04-16T08:04:26;99780.93;;;23.08;41.56
60646;BME280;46462;32.608;-117.032;2023-04-16T08:06:57;99779.93;;;23.06;41.54
60646;BME280;46462;32.608;-117.032;2023-04-16T08:09:27;99780.98;;;23.04;41.60
60646;BME280;46462;32.608;-117.032;2023-04-16T08:12:00;99781.12;;;23.03;41.57
60646;BME280;46462;32.608;-117.032;2023-04-16T08:14:29;99782.67;;;23.01;41.62
60646;BME280;46462;32.608;-117.032;2023-04-16T08:17:00;99782.47;;;22.98;41.63
60646;BME280;46462;32.608;-117.032;2023-04-16T08:19:31;99785.42;;;22.98;41.62
60646;BME280;46462;32.608;-117.032;2023-04-16T08:22:01;99784.36;;;22.98;41.59
60646;BME280;46462;32.608;-117.032;2023-04-16T08:24:32;99779.61;;;22.94;41.66
60646;BME280;46462;32.608;-117.032;2023-04-16T08:27:03;99780.44;;;22.98;41.54
60646;BME280;46462;32.608;-117.032;2023-04-16T08:29:34;99781.57;;;23.00;41.47
60646;BME280;46462;32.608;-117.032;2023-04-16T08:32:05;99778.46;;;23.04;41.37
60646;BME280;46462;32.608;-117.032;2023-04-16T08:34:36;99775.98;;;23.03;41.36
60646;BME280;46462;32.608;-117.032;2023-04-16T08:37:06;99773.63;;;23.04;41.34
60646;BME280;46462;32.608;-117.032;2023-04-16T08:39:37;99771.79;;;23.01;41.34
60646;BME280;46462;32.608;-117.032;2023-04-16T08:42:15;99764.63;;;22.97;41.39
60646;BME280;46462;32.608;-117.032;2023-04-16T08:44:42;99761.97;;;22.96;41.40
60646;BME280;46462;32.608;-117.032;2023-04-16T08:47:12;99759.47;;;22.96;41.38
60646;BME280;46462;32.608;-117.032;2023-04-16T08:49:43;99754.44;;;22.95;41.37
60646;BME280;46462;32.608;-117.032;2023-04-16T08:52:18;99753.66;;;22.95;41.34
60646;BME280;46462;32.608;-117.032;2023-04-16T08:54:54;99749.80;;;22.91;41.35
60646;BME280;46462;32.608;-117.032;2023-04-16T08:57:15;99745.98;;;22.93;41.31
60646;BME280;46462;32.608;-117.032;2023-04-16T08:59:45;99745.69;;;22.92;41.31
60646;BME280;46462;32.608;-117.032;2023-04-16T09:02:14;99745.12;;;22.94;41.26
60646;BME280;46462;32.608;-117.032;2023-04-16T09:04:44;99742.47;;;22.92;41.28
60646;BME280;46462;32.608;-117.032;2023-04-16T09:07:15;99741.80;;;22.92;41.25
60646;BME280;46462;32.608;-117.032;2023-04-16T09:09:48;99737.05;;;22.91;41.26
60646;BME280;46462;32.608;-117.032;2023-04-16T09:12:17;99734.13;;;22.91;41.27
60646;BME280;46462;32.608;-117.032;2023-04-16T09:14:49;99726.69;;;22.82;41.38
60646;BME280;46462;32.608;-117.032;2023-04-16T09:17:18;99722.27;;;22.83;41.33
60646;BME280;46462;32.608;-117.032;2023-04-16T09:19:49;99720.37;;;22.84;41.35
60646;BME280;46462;32.608;-117.032;2023-04-16T09:22:20;99717.03;;;22.86;41.28
60646;BME280;46462;32.608;-117.032;2023-04-16T09:24:50;99711.19;;;22.87;41.25
60646;BME280;46462;32.608;-117.032;2023-04-16T09:27:22;99704.17;;;22.88;41.21
60646;BME280;46462;32.608;-117.032;2023-04-16T09:29:53;99700.45;;;22.87;41.20
60646;BME280;46462;32.608;-117.032;2023-04-16T09:32:26;99697.06;;;22.83;41.24
60646;BME280;46462;32.608;-117.032;2023-04-16T09:34:56;99694.86;;;22.82;41.23
60646;BME280;46462;32.608;-117.032;2023-04-16T09:37:26;99696.00;;;22.82;41.21
60646;BME280;46462;32.608;-117.032;2023-04-16T09:39:57;99699.53;;;22.82;41.19
60646;BME280;46462;32.608;-117.032;2023-04-16T09:42:28;99703.02;;;22.82;41.21
60646;BME280;46462;32.608;-117.032;2023-04-16T09:44:57;99707.63;;;22.80;41.15
60646;BME280;46462;32.608;-117.032;2023-04-16T09:49:58;99703.54;;;22.78;41.19
60646;BME280;46462;32.608;-117.032;2023-04-16T09:52:30;99701.37;;;22.77;41.18
60646;BME280;46462;32.608;-117.032;2023-04-16T09:55:00;99700.89;;;22.74;41.24
60646;BME280;46462;32.608;-117.032;2023-04-16T09:57:31;99702.45;;;22.75;41.18
60646;BME280;46462;32.608;-117.032;2023-04-16T10:00:03;99699.14;;;22.75;41.16
60646;BME280;46462;32.608;-117.032;2023-04-16T10:02:35;99694.62;;;22.68;41.18
60646;BME280;46462;32.608;-117.032;2023-04-16T10:05:08;99691.06;;;22.69;41.20
60646;BME280;46462;32.608;-117.032;2023-04-16T10:07:39;99687.46;;;22.70;41.17
60646;BME280;46462;32.608;-117.032;2023-04-16T10:10:10;99685.56;;;22.66;41.26
60646;BME280;46462;32.608;-117.032;2023-04-16T10:12:40;99684.88;;;22.65;41.27
60646;BME280;46462;32.608;-117.032;2023-04-16T10:15:11;99684.89;;;22.61;41.33
60646;BME280;46462;32.608;-117.032;2023-04-16T10:17:42;99687.94;;;22.60;41.32
60646;BME280;46462;32.608;-117.032;2023-04-16T10:20:12;99689.13;;;22.54;41.41
60646;BME280;46462;32.608;-117.032;2023-04-16T10:22:43;99691.90;;;22.55;41.40
60646;BME280;46462;32.608;-117.032;2023-04-16T10:25:14;99694.72;;;22.57;41.32
60646;BME280;46462;32.608;-117.032;2023-04-16T10:27:45;99695.31;;;22.61;41.27
60646;BME280;46462;32.608;-117.032;2023-04-16T10:30:16;99699.01;;;22.63;41.20
60646;BME280;46462;32.608;-117.032;2023-04-16T10:32:46;99701.35;;;22.65;41.16
60646;BME280;46462;32.608;-117.032;2023-04-16T10:35:19;99701.46;;;22.64;41.12
60646;BME280;46462;32.608;-117.032;2023-04-16T10:37:47;99699.47;;;22.66;41.06
60646;BME280;46462;32.608;-117.032;2023-04-16T10:40:22;99698.02;;;22.65;41.04
60646;BME280;46462;32.608;-117.032;2023-04-16T10:42:55;99697.81;;;22.66;41.03
60646;BME280;46462;32.608;-117.032;2023-04-16T10:45:20;99699.08;;;22.65;41.02
60646;BME280;46462;32.608;-117.032;2023-04-16T10:47:50;99695.82;;;22.63;41.04
60646;BME280;46462;32.608;-117.032;2023-04-16T10:50:21;99691.85;;;22.64;41.03
60646;BME280;46462;32.608;-117.032;2023-04-16T10:55:24;99695.20;;;22.62;40.99
60646;BME280;46462;32.608;-117.032;2023-04-16T10:57:53;99697.95;;;22.59;41.02
60646;BME280;46462;32.608;-117.032;2023-04-16T11:00:24;99696.52;;;22.57;41.08
60646;BME280;46462;32.608;-117.032;2023-04-16T11:02:55;99698.05;;;22.58;41.03
60646;BME280;46462;32.608;-117.032;2023-04-16T11:10:27;99705.54;;;22.59;41.01
60646;BME280;46462;32.608;-117.032;2023-04-16T11:12:58;99704.26;;;22.59;40.98
60646;BME280;46462;32.608;-117.032;2023-04-16T11:15:28;99706.48;;;22.59;40.97
60646;BME280;46462;32.608;-117.032;2023-04-16T11:18:00;99708.07;;;22.58;40.94
60646;BME280;46462;32.608;-117.032;2023-04-16T11:20:30;99710.08;;;22.57;40.95
60646;BME280;46462;32.608;-117.032;2023-04-16T11:23:01;99711.12;;;22.55;40.97
60646;BME280;46462;32.608;-117.032;2023-04-16T11:25:31;99711.22;;;22.53;41.01
60646;BME280;46462;32.608;-117.032;2023-04-16T11:28:02;99713.70;;;22.46;41.05
60646;BME280;46462;32.608;-117.032;2023-04-16T11:30:34;99717.25;;;22.44;41.14
60646;BME280;46462;32.608;-117.032;2023-04-16T11:33:04;99724.98;;;22.47;41.08
60646;BME280;46462;32.608;-117.032;2023-04-16T11:35:35;99729.05;;;22.50;41.01
60646;BME280;46462;32.608;-117.032;2023-04-16T11:38:06;99733.51;;;22.45;41.06
60646;BME280;46462;32.608;-117.032;2023-04-16T11:40:36;99735.33;;;22.46;41.04
60646;BME280;46462;32.608;-117.032;2023-04-16T11:43:12;99745.64;;;22.46;41.02
60646;BME280;46462;32.608;-117.032;2023-04-16T11:45:40;99749.00;;;22.48;40.94
60646;BME280;46462;32.608;-117.032;2023-04-16T11:48:08;99750.18;;;22.45;40.99
60646;BME280;46462;32.608;-117.032;2023-04-16T11:50:40;99753.02;;;22.42;41.06
60646;BME280;46462;32.608;-117.032;2023-04-16T11:53:10;99756.34;;;22.42;41.04
60646;BME280;46462;32.608;-117.032;2023-04-16T11:55:43;99755.96;;;22.43;41.03
60646;BME280;46462;32.608;-117.032;2023-04-16T11:58:12;99752.01;;;22.41;41.02
60646;BME280;46462;32.608;-117.032;2023-04-16T12:00:43;99752.39;;;22.40;41.03
60646;BME280;46462;32.608;-117.032;2023-04-16T12:03:13;99751.33;;;22.41;41.01
60646;BME280;46462;32.608;-117.032;2023-04-16T12:05:44;99752.94;;;22.37;41.05
60646;BME280;46462;32.608;-117.032;2023-04-16T12:10:53;99756.36;;;22.33;41.10
60646;BME280;46462;32.608;-117.032;2023-04-16T12:13:17;99761.23;;;22.31;41.18
60646;BME280;46462;32.608;-117.032;2023-04-16T12:15:53;99764.63;;;22.28;41.21
60646;BME280;46462;32.608;-117.032;2023-04-16T12:18:24;99768.20;;;22.30;41.18
60646;BME280;46462;32.608;-117.032;2023-04-16T12:20:49;99768.70;;;22.33;41.11
60646;BME280;46462;32.608;-117.032;2023-04-16T12:23:24;99771.17;;;22.35;41.06
60646;BME280;46462;32.608;-117.032;2023-04-16T12:25:50;99776.24;;;22.36;41.02
60646;BME280;46462;32.608;-117.032;2023-04-16T12:28:26;99778.29;;;22.35;41.02
60646;BME280;46462;32.608;-117.032;2023-04-16T12:30:52;99777.21;;;22.30;41.09
60646;BME280;46462;32.608;-117.032;2023-04-16T12:33:23;99777.81;;;22.35;41.00
60646;BME280;46462;32.608;-117.032;2023-04-16T12:35:53;99778.70;;;22.33;41.02
60646;BME280;46462;32.608;-117.032;2023-04-16T12:38:24;99781.52;;;22.35;40.97
60646;BME280;46462;32.608;-117.032;2023-04-16T12:40:55;99781.83;;;22.34;40.98
60646;BME280;46462;32.608;-117.032;2023-04-16T12:43:26;99779.84;;;22.33;40.97
60646;BME280;46462;32.608;-117.032;2023-04-16T12:45:56;99777.09;;;22.32;41.00
60646;BME280;46462;32.608;-117.032;2023-04-16T12:48:27;99783.00;;;22.30;41.03
60646;BME280;46462;32.608;-117.032;2023-04-16T12:50:58;99783.53;;;22.33;40.96
60646;BME280;46462;32.608;-117.032;2023-04-16T12:53:29;99781.42;;;22.32;40.92
60646;BME280;46462;32.608;-117.032;2023-04-16T12:56:00;99779.25;;;22.30;40.97
60646;BME280;46462;32.608;-117.032;2023-04-16T12:58:31;99777.65;;;22.30;40.96
60646;BME280;46462;32.608;-117.032;2023-04-16T13:01:01;99779.81;;;22.31;40.96